Latest Weather Observations for Victoria River Downs

IDD60801

Issued at 9:35 pm CST Wednesday 22 October 2014 (issued every 30 minutes, with the page automatically refreshed every 10 minutes)

About weather observations | Map of weather stations | Latest weather observations for NT | Other Formats
Station Details ID: 014825 Name: VICTORIA RIVER DOWNS Lat: -16.40 Lon: 131.01 Height: 88.5 m
Data from the previous 72 hours. | See also: Recent months at Victoria River Downs
Date/Time
CST
Temp
°C
App
Temp
°C
Dew
Point
Rel
Hum
%
Delta-T
°C
Wind Press
QNH
hPa
Press
MSL
hPa
Rain
since 9 am
mm
Dir
 
Spd
km/h
Gust
km/h
Spd
kts
Gust
kts
22/09:30pm 28.4 27.8 7.6 27 11.3 NE 0 0 0 0 1011.7 - 0.0
22/09:00pm 28.6 26.3 4.8 22 12.3 ENE 6 7 3 4 1011.4 1010.8 0.0
22/08:30pm 29.2 27.0 5.3 22 12.5 NNE 6 7 3 4 1011.0 - 0.0
22/08:00pm 30.6 28.4 5.1 20 13.4 NE 6 7 3 4 1010.8 - 0.0
22/07:30pm 32.1 30.1 6.3 20 13.9 NE 6 7 3 4 1010.7 - 0.0
22/07:00pm 34.6 31.4 3.2 14 16.3 NE 9 11 5 6 1010.3 - 0.0
22/06:30pm 36.8 33.4 3.9 13 17.5 E 11 17 6 9 1010.1 - 0.0
22/06:00pm 37.6 34.3 4.5 13 17.9 E 11 17 6 9 1009.8 1009.2 0.0
22/05:30pm 38.3 34.1 3.9 12 18.5 ENE 15 28 8 15 1009.5 - 0.0
22/05:00pm 38.4 33.5 4.0 12 18.5 ENE 19 32 10 17 1009.5 - 0.0
22/04:30pm 38.7 35.0 6.4 14 18.1 ENE 15 30 8 16 1009.5 - 0.0
22/04:00pm 38.6 33.9 5.3 13 18.3 E 19 32 10 17 1009.6 - 0.0
22/03:30pm 38.8 34.5 5.4 13 18.4 NNE 17 26 9 14 1009.9 - 0.0
22/03:00pm 38.5 33.9 6.3 14 18.0 ENE 20 26 11 14 1010.1 1009.6 0.0
22/02:30pm 38.6 34.9 6.3 14 18.0 NE 15 32 8 17 1010.4 - 0.0
22/02:00pm 37.7 32.7 6.6 15 17.4 ENE 22 37 12 20 1010.9 - 0.0
22/01:30pm 37.7 33.7 6.6 15 17.4 NNE 17 30 9 16 1011.4 - 0.0
22/01:00pm 37.2 33.5 8.1 17 16.6 NE 17 30 9 16 1012.0 - 0.0
22/12:30pm 36.5 32.5 8.4 18 16.0 N 19 37 10 20 1012.7 - 0.0
22/12:00pm 35.6 31.8 11.3 23 14.4 NNE 22 33 12 18 1013.4 1012.7 0.0
22/11:30am 35.5 32.9 13.1 26 13.6 NNE 19 28 10 15 1014.0 - 0.0
22/11:00am 34.3 31.9 11.4 25 13.5 NE 15 30 8 16 1014.5 - 0.0
22/10:30am 34.5 32.1 12.8 27 13.1 NNE 17 28 9 15 1014.8 - 0.0
22/10:00am 33.5 31.2 13.0 29 12.4 NNE 17 24 9 13 1014.8 - 0.0
22/09:30am 32.3 29.9 11.5 28 12.2 N 15 22 8 12 1014.9 - 0.0
22/09:00am 31.3 28.8 11.1 29 11.7 NNE 15 20 8 11 1014.9 1014.2 0.0
22/08:30am 29.4 26.0 10.5 31 10.8 NE 19 26 10 14 1014.7 - 0.0
22/08:00am 28.8 25.6 10.0 31 10.6 NNE 17 26 9 14 1014.7 - 0.0
22/07:30am 27.5 24.5 7.9 29 10.6 NE 13 19 7 10 1014.5 - 0.0
22/07:00am 25.0 22.9 8.1 34 9.0 NE 9 13 5 7 1014.2 - 0.0
22/06:30am 23.0 20.6 7.1 36 8.3 NE 9 11 5 6 1013.7 - 0.0
22/06:00am 23.8 21.0 7.0 34 8.8 ENE 11 13 6 7 1013.3 1012.6 0.0
22/05:30am 23.4 20.3 7.1 35 8.5 ENE 13 15 7 8 1013.0 - 0.0
22/05:00am 23.6 21.5 6.8 34 8.7 E 7 11 4 6 1012.5 - 0.0
22/04:30am 24.1 21.7 6.8 33 9.0 E 9 11 5 6 1012.3 - 0.0
22/04:00am 24.6 21.5 5.4 29 9.8 ENE 11 15 6 8 1012.0 - 0.0
22/03:30am 23.0 20.2 7.1 36 8.3 NNE 11 13 6 7 1011.9 - 0.0
22/03:00am 21.1 20.7 8.4 44 6.7 CALM 0 0 0 0 1011.9 1011.2 0.0
22/02:30am 21.5 21.1 8.4 43 6.9 CALM 0 0 0 0 1012.1 - 0.0
22/02:00am 22.3 21.6 8.4 41 7.4 NNW 2 6 1 3 1012.2 - 0.0
22/01:30am 22.5 21.3 9.6 44 7.0 ESE 6 7 3 4 1012.5 - 0.0
22/01:00am 22.8 21.5 9.2 42 7.3 ENE 6 9 3 5 1012.8 - 0.0
22/12:30am 24.6 24.2 12.5 46 7.0 SE 6 7 3 4 1013.1 - 0.0
22/12:00am 24.4 23.2 9.6 39 8.1 N 6 7 3 4 1013.2 1012.5 0.0
 
Date/Time
CST
Temp
°C
App
Temp
°C
Dew
Point
Rel
Hum
%
Delta-T
°C
Wind Press
QNH
hPa
Press
MSL
hPa
Rain
since 9 am
mm
Dir
 
Spd
km/h
Gust
km/h
Spd
kts
Gust
kts
21/11:30pm 25.8 25.6 9.2 35 9.1 CALM 0 0 0 0 1013.3 - 0.0
21/11:00pm 27.0 26.1 10.7 36 9.2 ENE 6 9 3 5 1013.5 - 0.0
21/10:30pm 27.2 26.1 10.0 34 9.6 NNE 6 11 3 6 1013.5 - 0.0
21/10:00pm 27.4 27.0 8.3 30 10.4 CALM 0 0 0 0 1013.4 - 0.0
21/09:30pm 28.1 - 8.9 30 10.6 - - - - - 1013.2 - 0.0
21/09:00pm 29.1 27.8 9.3 29 11.1 WSW 6 7 3 4 1013.0 1012.3 0.0
21/08:30pm 29.8 30.0 10.4 30 11.1 CALM 0 0 0 0 1012.7 - 0.0
21/08:00pm 30.9 31.5 11.8 31 11.2 CALM 0 0 0 0 1012.3 - 0.0
21/07:30pm 32.1 30.6 8.4 23 13.2 ENE 6 7 3 4 1012.0 - 0.0
21/07:00pm 34.2 32.4 8.0 20 14.7 ENE 7 7 4 4 1011.7 - 0.0
21/06:30pm 35.9 34.1 7.9 18 15.8 E 7 13 4 7 1011.3 - 0.0
21/06:00pm 36.9 34.5 7.0 16 16.7 E 9 13 5 7 1010.9 1010.3 0.0
21/05:30pm 37.2 35.0 6.3 15 17.1 NNE 7 11 4 6 1010.8 - 0.0
21/05:00pm 37.1 34.5 6.2 15 17.1 ESE 9 19 5 10 1010.6 - 0.0
21/04:30pm 37.6 35.1 6.6 15 17.3 ESE 9 17 5 9 1010.6 - 0.0
21/04:00pm 38.0 34.2 5.9 14 17.7 NE 15 26 8 14 1010.7 - 0.0
21/03:30pm 37.5 33.8 6.5 15 17.3 ENE 15 24 8 13 1011.1 - 0.0
21/03:00pm 36.7 32.9 7.7 17 16.4 NE 17 24 9 13 1011.4 1010.8 0.0
21/02:30pm 37.6 35.4 9.2 18 16.5 ENE 11 20 6 11 1011.8 - 0.0
21/02:00pm 36.2 33.1 8.9 19 15.7 E 15 28 8 15 1012.2 - 0.0
21/01:30pm 36.6 34.6 10.0 20 15.5 ESE 11 24 6 13 1012.7 - 0.0
21/01:00pm 36.9 34.5 10.2 20 15.7 NE 13 28 7 15 1013.4 - 0.0
21/12:30pm 35.6 33.3 11.9 24 14.2 E 15 22 8 12 1014.3 - 0.0
21/12:00pm 35.8 34.0 14.4 27 13.3 NE 17 28 9 15 1014.9 1014.2 0.0
21/11:30am 34.4 32.0 13.8 29 12.6 NNE 19 32 10 17 1015.3 - 0.0
21/11:00am 35.0 34.6 15.3 30 12.4 NNE 11 28 6 15 1015.7 - 0.0
21/10:30am 33.1 31.8 13.7 31 11.8 N 13 24 7 13 1016.1 - 0.0
21/10:00am 32.2 29.9 11.9 29 12.0 N 15 24 8 13 1016.3 - 0.0
21/09:30am 31.4 29.7 11.2 29 11.8 N 11 17 6 9 1016.4 - 0.0
21/09:00am 29.8 27.2 9.3 28 11.5 NE 13 20 7 11 1016.5 1015.9 0.0
21/08:30am 28.2 25.4 8.5 29 10.8 NE 13 19 7 10 1016.3 - 0.0
21/08:00am 27.2 24.7 8.1 30 10.4 ENE 11 17 6 9 1016.1 - 0.0
21/07:30am 25.2 23.0 9.5 37 8.6 ENE 11 13 6 7 1015.6 - 0.0
21/07:22am 23.9 21.4 8.3 37 8.3 ENE 11 13 6 7 1015.4 - 0.0
21/07:00am 21.5 19.1 8.7 44 6.8 ENE 11 13 6 7 1015.1 - 0.0
21/06:30am 18.7 17.7 5.5 42 6.5 CALM 0 0 0 0 1014.8 - 0.0
21/06:00am 19.3 19.1 8.9 51 5.5 CALM 0 2 0 1 1014.3 1013.6 0.0
21/05:30am 19.4 17.3 6.8 44 6.4 ENE 7 9 4 5 1013.9 - 0.0
21/05:00am 19.1 17.1 6.2 43 6.4 N 6 7 3 4 1013.7 - 0.0
21/04:30am 19.9 19.1 6.3 41 6.8 CALM 0 0 0 0 1013.4 - 0.0
21/04:00am 20.7 18.6 6.6 40 7.2 S 7 11 4 6 1013.1 - 0.0
21/03:30am 21.6 19.0 6.3 37 7.8 S 9 11 5 6 1012.9 - 0.0
21/03:00am 21.5 20.1 9.4 46 6.5 SSE 7 9 4 5 1012.7 1012.0 0.0
21/02:30am 22.4 21.0 9.6 44 6.9 E 7 9 4 5 1012.7 - 0.0
21/02:00am 22.5 21.1 7.1 37 8.0 ENE 4 9 2 5 1012.8 - 0.0
21/01:30am 23.1 22.0 5.1 31 9.0 CALM 0 0 0 0 1012.9 - 0.0
21/01:00am 24.8 22.5 5.6 29 9.8 NE 7 11 4 6 1013.0 - 0.0
21/12:30am 23.5 20.4 5.4 31 9.1 NNE 11 17 6 9 1013.2 - 0.0
21/12:00am 22.5 21.0 6.7 36 8.1 NNW 4 9 2 5 1013.0 1012.3 0.0
 
Date/Time
CST
Temp
°C
App
Temp
°C
Dew
Point
Rel
Hum
%
Delta-T
°C
Wind Press
QNH
hPa
Press
MSL
hPa
Rain
since 9 am
mm
Dir
 
Spd
km/h
Gust
km/h
Spd
kts
Gust
kts
20/11:30pm 23.1 22.2 6.0 33 8.7 CALM 0 0 0 0 1013.0 - 0.0
20/11:00pm 23.7 22.1 6.5 33 8.9 SSE 4 9 2 5 1013.1 - 0.0
20/10:30pm 24.5 23.1 7.2 33 9.1 SSE 4 7 2 4 1013.2 - 0.0
20/10:00pm 24.7 24.0 6.9 32 9.3 CALM 0 6 0 3 1013.0 - 0.0
20/09:30pm 25.7 24.9 6.3 29 10.1 CALM 0 0 0 0 1012.7 - 0.0
20/09:00pm 25.9 25.1 6.5 29 10.1 CALM 0 0 0 0 1012.4 - 0.0
20/08:30pm 27.3 26.4 7.7 29 10.6 S 2 7 1 4 1012.1 - 0.0
20/08:00pm 28.4 27.7 7.1 26 11.4 CALM 0 0 0 0 1011.7 - 0.0
20/07:30pm 29.8 29.6 10.4 30 11.1 S 2 7 1 4 1011.2 - 0.0
20/07:00pm 31.6 29.8 7.3 22 13.3 SE 6 7 3 4 1010.8 - 0.0
20/06:30pm 34.0 31.8 5.5 17 15.3 SE 6 7 3 4 1010.5 - 0.0
20/06:00pm 36.2 33.3 4.5 14 17.0 E 9 13 5 7 1010.3 1009.6 0.0
20/05:30pm 37.2 33.8 4.2 13 17.7 E 11 17 6 9 1009.9 - 0.0
20/05:00pm 37.0 34.6 5.1 14 17.3 SE 7 13 4 7 1009.9 - 0.0
20/04:30pm 37.1 34.1 6.2 15 17.1 SSE 11 17 6 9 1009.9 - 0.0
20/04:00pm 37.2 34.0 5.3 14 17.4 E 11 13 6 7 1010.1 - 0.0
20/03:30pm 37.0 33.0 5.1 14 17.3 E 15 26 8 14 1010.4 - 0.0
20/03:00pm 37.6 34.1 5.6 14 17.6 E 13 22 7 12 1010.7 1010.1 0.0
20/02:30pm 37.5 32.9 5.5 14 17.5 NE 19 32 10 17 1011.3 - 0.0
20/02:00pm 37.1 33.5 5.2 14 17.4 ESE 13 32 7 17 1012.0 - 0.0
20/01:30pm 36.5 31.3 3.7 13 17.4 NE 20 32 11 17 1012.6 - 0.0
20/01:00pm 36.8 33.1 7.8 17 16.4 E 17 35 9 19 1013.3 - 0.0
20/12:30pm 35.9 33.7 9.4 20 15.3 E 11 17 6 9 1013.8 - 0.0
20/12:00pm 34.9 31.7 11.3 24 14.0 NNE 19 28 10 15 1014.5 1013.8 0.0
20/11:30am 34.6 31.2 11.1 24 13.8 NE 20 35 11 19 1015.1 - 0.0
20/11:00am 34.8 31.0 11.2 24 13.9 N 22 32 12 17 1015.3 - 0.0
20/10:30am 34.0 31.0 12.4 27 12.9 NNE 20 32 11 17 1015.8 - 0.0
20/10:00am 32.8 29.4 12.4 29 12.2 NNE 22 32 12 17 1016.2 - 0.0
20/09:30am 32.1 29.2 12.3 29 11.8 NE 19 26 10 14 1016.5 - 0.0
20/09:00am 30.4 27.8 11.9 32 10.8 NNE 17 28 9 15 1016.3 1015.8 0.0
20/08:30am 30.1 27.8 11.6 32 10.8 NE 15 24 8 13 1016.3 - 0.0
20/08:00am 27.4 23.8 8.3 30 10.4 NE 17 24 9 13 1016.0 - 0.0
20/07:30am 25.7 23.7 8.7 34 9.2 ENE 9 13 5 7 1015.6 - 0.0
20/07:18am 24.2 22.0 9.4 39 8.1 ENE 11 13 6 7 1015.4 - 0.0
20/07:00am 21.7 19.5 9.3 45 6.7 ENE 11 11 6 6 1015.1 - 0.0
20/06:30am 19.1 17.3 7.2 46 6.0 E 6 7 3 4 1014.6 - 0.0
20/06:00am 20.0 18.5 8.4 47 6.1 ESE 6 7 3 4 1014.3 1013.5 0.0
20/05:30am 21.1 19.8 11.2 53 5.5 ESE 9 11 5 6 1014.0 - 0.0
20/05:00am 22.0 21.3 9.9 46 6.6 ENE 4 7 2 4 1013.6 - 0.0
20/04:30am 20.2 17.5 5.8 39 7.2 NNW 9 11 5 6 1013.3 - 0.0
20/04:00am 19.9 17.7 5.2 38 7.2 NW 6 9 3 5 1013.1 - 0.0
20/03:30am 19.9 17.6 5.5 39 7.1 NW 7 7 4 4 1012.8 - 0.0
20/03:00am 20.6 20.5 9.5 49 5.9 CALM 0 0 0 0 1012.7 1012.0 0.0
20/02:30am 20.7 18.5 5.5 37 7.6 W 6 9 3 5 1012.7 - 0.0
20/02:00am 20.7 18.9 7.0 41 7.0 WNW 6 9 3 5 1012.8 - 0.0
20/01:30am 21.0 19.3 7.6 42 6.9 NNE 6 9 3 5 1012.8 - 0.0
20/01:00am 21.9 21.8 12.2 54 5.5 SE 4 7 2 4 1012.9 - 0.0
20/12:30am 22.1 20.9 7.9 40 7.4 NE 4 7 2 4 1012.8 - 0.0
20/12:00am 22.4 21.9 7.8 39 7.7 NNE 0 9 0 5 1012.9 1012.3 0.0
 
Date/Time
CST
Temp
°C
App
Temp
°C
Dew
Point
Rel
Hum
%
Delta-T
°C
Wind Press
QNH
hPa
Press
MSL
hPa
Rain
since 9 am
mm
Dir
 
Spd
km/h
Gust
km/h
Spd
kts
Gust
kts
19/11:30pm 23.0 22.5 7.9 38 8.0 CALM 0 0 0 0 1013.1 - 0.0
19/11:00pm 24.1 23.1 8.9 38 8.2 SW 4 7 2 4 1012.9 - 0.0
19/10:30pm 23.9 23.4 11.9 47 6.8 S 6 13 3 7 1012.7 - 0.0
19/10:00pm 24.5 22.7 7.2 33 9.1 NW 6 9 3 5 1012.6 - 0.0

Other Formats:

Comma delimited format used in spreadsheet applications
http://www.bom.gov.au/fwo/IDD60801/IDD60801.94232.axf

JavaScript Object Notation format (JSON) in row-major order
http://www.bom.gov.au/fwo/IDD60801/IDD60801.94232.json